sensor_id;sensor_type;location;lat;lon;timestamp;P1;durP1;ratioP1;P2;durP2;ratioP2
42196;SDS011;27866;48.146;17.098;2023-01-26T00:03:58;24.85;;;12.80;;
42196;SDS011;27866;48.146;17.098;2023-01-26T00:08:09;25.08;;;12.15;;
42196;SDS011;27866;48.146;17.098;2023-01-26T00:12:21;22.30;;;11.02;;
42196;SDS011;27866;48.146;17.098;2023-01-26T00:16:32;24.42;;;13.23;;
42196;SDS011;27866;48.146;17.098;2023-01-26T00:20:44;24.75;;;12.90;;
42196;SDS011;27866;48.146;17.098;2023-01-26T00:24:55;24.58;;;13.60;;
42196;SDS011;27866;48.146;17.098;2023-01-26T00:29:06;24.08;;;12.20;;
42196;SDS011;27866;48.146;17.098;2023-01-26T00:33:17;29.58;;;13.13;;
42196;SDS011;27866;48.146;17.098;2023-01-26T00:37:29;27.65;;;13.07;;
42196;SDS011;27866;48.146;17.098;2023-01-26T00:41:40;24.13;;;13.82;;
42196;SDS011;27866;48.146;17.098;2023-01-26T00:46:10;24.27;;;13.10;;
42196;SDS011;27866;48.146;17.098;2023-01-26T00:50:21;28.83;;;13.27;;
42196;SDS011;27866;48.146;17.098;2023-01-26T00:54:33;27.20;;;13.55;;
42196;SDS011;27866;48.146;17.098;2023-01-26T00:58:44;27.27;;;14.07;;
42196;SDS011;27866;48.146;17.098;2023-01-26T01:02:56;28.90;;;13.77;;
42196;SDS011;27866;48.146;17.098;2023-01-26T01:07:07;28.95;;;14.10;;
42196;SDS011;27866;48.146;17.098;2023-01-26T01:11:20;27.45;;;12.90;;
42196;SDS011;27866;48.146;17.098;2023-01-26T01:15:31;23.35;;;12.60;;
42196;SDS011;27866;48.146;17.098;2023-01-26T01:19:42;21.92;;;12.13;;
42196;SDS011;27866;48.146;17.098;2023-01-26T01:23:53;28.55;;;13.93;;
42196;SDS011;27866;48.146;17.098;2023-01-26T01:28:05;27.38;;;13.75;;
42196;SDS011;27866;48.146;17.098;2023-01-26T01:32:16;31.80;;;16.25;;
42196;SDS011;27866;48.146;17.098;2023-01-26T01:36:29;35.60;;;16.53;;
42196;SDS011;27866;48.146;17.098;2023-01-26T01:40:41;30.42;;;15.60;;
42196;SDS011;27866;48.146;17.098;2023-01-26T01:50:07;28.55;;;13.98;;
42196;SDS011;27866;48.146;17.098;2023-01-26T01:54:29;29.25;;;13.90;;
42196;SDS011;27866;48.146;17.098;2023-01-26T01:58:52;30.80;;;14.05;;
42196;SDS011;27866;48.146;17.098;2023-01-26T02:07:24;30.73;;;13.75;;
42196;SDS011;27866;48.146;17.098;2023-01-26T02:11:39;32.58;;;15.75;;
42196;SDS011;27866;48.146;17.098;2023-01-26T02:15:59;33.63;;;16.02;;
42196;SDS011;27866;48.146;17.098;2023-01-26T02:24:36;41.08;;;18.70;;
42196;SDS011;27866;48.146;17.098;2023-01-26T02:28:49;38.28;;;17.50;;
42196;SDS011;27866;48.146;17.098;2023-01-26T02:33:01;37.70;;;17.45;;
42196;SDS011;27866;48.146;17.098;2023-01-26T02:37:13;39.38;;;17.92;;
42196;SDS011;27866;48.146;17.098;2023-01-26T02:41:25;45.15;;;19.73;;
42196;SDS011;27866;48.146;17.098;2023-01-26T02:45:55;45.70;;;20.65;;
42196;SDS011;27866;48.146;17.098;2023-01-26T02:50:07;46.60;;;19.98;;
42196;SDS011;27866;48.146;17.098;2023-01-26T02:54:19;52.10;;;21.60;;
42196;SDS011;27866;48.146;17.098;2023-01-26T02:58:49;54.22;;;22.08;;
42196;SDS011;27866;48.146;17.098;2023-01-26T03:03:00;60.92;;;24.38;;
42196;SDS011;27866;48.146;17.098;2023-01-26T03:07:17;62.85;;;24.70;;
42196;SDS011;27866;48.146;17.098;2023-01-26T03:11:28;80.35;;;25.95;;
42196;SDS011;27866;48.146;17.098;2023-01-26T03:15:51;72.35;;;26.08;;
42196;SDS011;27866;48.146;17.098;2023-01-26T03:24:36;80.20;;;27.20;;
42196;SDS011;27866;48.146;17.098;2023-01-26T03:29:06;90.85;;;28.52;;
42196;SDS011;27866;48.146;17.098;2023-01-26T03:33:18;86.90;;;27.52;;
42196;SDS011;27866;48.146;17.098;2023-01-26T03:37:29;84.35;;;26.48;;
42196;SDS011;27866;48.146;17.098;2023-01-26T03:41:50;112.38;;;28.67;;
42196;SDS011;27866;48.146;17.098;2023-01-26T03:46:20;161.63;;;34.13;;
42196;SDS011;27866;48.146;17.098;2023-01-26T03:50:53;135.63;;;32.75;;
42196;SDS011;27866;48.146;17.098;2023-01-26T03:55:22;158.35;;;32.20;;
42196;SDS011;27866;48.146;17.098;2023-01-26T03:59:53;160.20;;;32.42;;
42196;SDS011;27866;48.146;17.098;2023-01-26T04:04:07;130.68;;;30.80;;
42196;SDS011;27866;48.146;17.098;2023-01-26T04:08:39;114.13;;;29.85;;
42196;SDS011;27866;48.146;17.098;2023-01-26T04:12:51;158.00;;;33.90;;
42196;SDS011;27866;48.146;17.098;2023-01-26T04:17:22;117.93;;;31.63;;
42196;SDS011;27866;48.146;17.098;2023-01-26T04:21:52;105.82;;;30.65;;
42196;SDS011;27866;48.146;17.098;2023-01-26T04:26:04;120.97;;;32.28;;
42196;SDS011;27866;48.146;17.098;2023-01-26T04:30:16;113.03;;;30.58;;
42196;SDS011;27866;48.146;17.098;2023-01-26T04:34:28;117.82;;;32.17;;
42196;SDS011;27866;48.146;17.098;2023-01-26T04:38:39;107.25;;;32.38;;
42196;SDS011;27866;48.146;17.098;2023-01-26T04:42:50;118.65;;;34.53;;
42196;SDS011;27866;48.146;17.098;2023-01-26T04:47:02;114.28;;;34.13;;
42196;SDS011;27866;48.146;17.098;2023-01-26T04:51:14;120.45;;;35.38;;
42196;SDS011;27866;48.146;17.098;2023-01-26T04:55:31;115.22;;;33.72;;
42196;SDS011;27866;48.146;17.098;2023-01-26T04:59:43;111.25;;;33.28;;
42196;SDS011;27866;48.146;17.098;2023-01-26T05:03:54;112.70;;;32.63;;
42196;SDS011;27866;48.146;17.098;2023-01-26T05:08:12;112.18;;;33.63;;
42196;SDS011;27866;48.146;17.098;2023-01-26T05:12:23;109.20;;;33.35;;
42196;SDS011;27866;48.146;17.098;2023-01-26T05:17:02;102.03;;;34.53;;
42196;SDS011;27866;48.146;17.098;2023-01-26T05:21:22;104.82;;;31.40;;
42196;SDS011;27866;48.146;17.098;2023-01-26T05:25:37;88.50;;;30.60;;
42196;SDS011;27866;48.146;17.098;2023-01-26T05:29:52;93.05;;;30.48;;
42196;SDS011;27866;48.146;17.098;2023-01-26T05:34:08;88.65;;;30.50;;
42196;SDS011;27866;48.146;17.098;2023-01-26T05:38:20;87.25;;;29.63;;
42196;SDS011;27866;48.146;17.098;2023-01-26T05:42:32;97.95;;;30.45;;
42196;SDS011;27866;48.146;17.098;2023-01-26T05:47:06;86.45;;;31.95;;
42196;SDS011;27866;48.146;17.098;2023-01-26T05:51:18;85.28;;;29.05;;
42196;SDS011;27866;48.146;17.098;2023-01-26T05:55:29;81.63;;;30.55;;
42196;SDS011;27866;48.146;17.098;2023-01-26T05:59:41;78.45;;;28.75;;
42196;SDS011;27866;48.146;17.098;2023-01-26T06:03:53;100.65;;;31.38;;
42196;SDS011;27866;48.146;17.098;2023-01-26T06:08:04;98.65;;;33.30;;
42196;SDS011;27866;48.146;17.098;2023-01-26T06:12:29;106.57;;;32.15;;
42196;SDS011;27866;48.146;17.098;2023-01-26T06:16:51;90.88;;;31.77;;
42196;SDS011;27866;48.146;17.098;2023-01-26T06:21:04;89.82;;;31.10;;
42196;SDS011;27866;48.146;17.098;2023-01-26T06:25:16;86.88;;;31.13;;
42196;SDS011;27866;48.146;17.098;2023-01-26T06:29:27;101.68;;;30.90;;
42196;SDS011;27866;48.146;17.098;2023-01-26T06:33:39;121.20;;;37.00;;
42196;SDS011;27866;48.146;17.098;2023-01-26T06:37:52;129.60;;;37.15;;
42196;SDS011;27866;48.146;17.098;2023-01-26T06:42:03;109.15;;;32.78;;
42196;SDS011;27866;48.146;17.098;2023-01-26T06:46:16;113.78;;;36.45;;
42196;SDS011;27866;48.146;17.098;2023-01-26T06:50:32;122.75;;;36.70;;
42196;SDS011;27866;48.146;17.098;2023-01-26T06:54:47;94.47;;;32.03;;
42196;SDS011;27866;48.146;17.098;2023-01-26T06:59:16;81.55;;;29.67;;
42196;SDS011;27866;48.146;17.098;2023-01-26T07:03:41;70.75;;;27.98;;
42196;SDS011;27866;48.146;17.098;2023-01-26T07:07:52;60.38;;;26.23;;
42196;SDS011;27866;48.146;17.098;2023-01-26T07:12:04;77.30;;;29.88;;
42196;SDS011;27866;48.146;17.098;2023-01-26T07:16:16;72.63;;;27.75;;
42196;SDS011;27866;48.146;17.098;2023-01-26T07:20:28;86.55;;;29.95;;
42196;SDS011;27866;48.146;17.098;2023-01-26T07:24:39;85.72;;;30.55;;
42196;SDS011;27866;48.146;17.098;2023-01-26T07:28:50;89.25;;;31.02;;
42196;SDS011;27866;48.146;17.098;2023-01-26T07:33:01;91.40;;;31.75;;
42196;SDS011;27866;48.146;17.098;2023-01-26T07:37:13;99.95;;;33.67;;
42196;SDS011;27866;48.146;17.098;2023-01-26T07:41:24;81.43;;;30.63;;
42196;SDS011;27866;48.146;17.098;2023-01-26T07:45:35;73.97;;;28.00;;
42196;SDS011;27866;48.146;17.098;2023-01-26T07:49:46;72.28;;;26.88;;
42196;SDS011;27866;48.146;17.098;2023-01-26T07:53:58;65.53;;;26.70;;
42196;SDS011;27866;48.146;17.098;2023-01-26T07:58:09;65.60;;;25.60;;
42196;SDS011;27866;48.146;17.098;2023-01-26T08:02:21;63.50;;;25.70;;
42196;SDS011;27866;48.146;17.098;2023-01-26T08:06:32;61.08;;;26.65;;
42196;SDS011;27866;48.146;17.098;2023-01-26T08:10:44;58.78;;;25.25;;
42196;SDS011;27866;48.146;17.098;2023-01-26T08:14:55;58.75;;;25.58;;
42196;SDS011;27866;48.146;17.098;2023-01-26T08:19:06;56.20;;;25.33;;
42196;SDS011;27866;48.146;17.098;2023-01-26T08:23:18;62.33;;;25.90;;
42196;SDS011;27866;48.146;17.098;2023-01-26T08:27:29;59.03;;;25.35;;
42196;SDS011;27866;48.146;17.098;2023-01-26T08:31:41;59.85;;;26.30;;
42196;SDS011;27866;48.146;17.098;2023-01-26T08:35:52;57.92;;;25.83;;
42196;SDS011;27866;48.146;17.098;2023-01-26T08:40:03;61.03;;;26.27;;
42196;SDS011;27866;48.146;17.098;2023-01-26T08:44:15;58.42;;;24.77;;
42196;SDS011;27866;48.146;17.098;2023-01-26T08:48:26;58.13;;;25.38;;
42196;SDS011;27866;48.146;17.098;2023-01-26T08:52:38;65.45;;;27.27;;
42196;SDS011;27866;48.146;17.098;2023-01-26T08:56:49;67.38;;;27.15;;
42196;SDS011;27866;48.146;17.098;2023-01-26T09:01:11;67.22;;;27.45;;
42196;SDS011;27866;48.146;17.098;2023-01-26T09:05:25;71.00;;;27.70;;
42196;SDS011;27866;48.146;17.098;2023-01-26T09:09:37;72.50;;;28.98;;
42196;SDS011;27866;48.146;17.098;2023-01-26T09:13:48;73.30;;;28.45;;
42196;SDS011;27866;48.146;17.098;2023-01-26T09:18:05;66.70;;;27.67;;
42196;SDS011;27866;48.146;17.098;2023-01-26T09:22:16;67.60;;;28.98;;
42196;SDS011;27866;48.146;17.098;2023-01-26T09:26:28;72.03;;;29.90;;
42196;SDS011;27866;48.146;17.098;2023-01-26T09:30:40;69.90;;;29.52;;
42196;SDS011;27866;48.146;17.098;2023-01-26T09:34:51;74.32;;;29.45;;
42196;SDS011;27866;48.146;17.098;2023-01-26T09:39:02;76.60;;;27.85;;
42196;SDS011;27866;48.146;17.098;2023-01-26T09:52:53;81.30;;;31.33;;
42196;SDS011;27866;48.146;17.098;2023-01-26T09:57:15;89.05;;;33.47;;
42196;SDS011;27866;48.146;17.098;2023-01-26T10:01:51;84.10;;;31.02;;
42196;SDS011;27866;48.146;17.098;2023-01-26T10:06:23;71.50;;;27.83;;
42196;SDS011;27866;48.146;17.098;2023-01-26T10:11:00;81.47;;;30.42;;
42196;SDS011;27866;48.146;17.098;2023-01-26T10:19:52;76.40;;;29.85;;
42196;SDS011;27866;48.146;17.098;2023-01-26T10:24:11;75.82;;;29.45;;
42196;SDS011;27866;48.146;17.098;2023-01-26T10:28:28;73.05;;;29.00;;
42196;SDS011;27866;48.146;17.098;2023-01-26T10:32:42;76.82;;;29.23;;
42196;SDS011;27866;48.146;17.098;2023-01-26T10:37:39;74.70;;;28.23;;
42196;SDS011;27866;48.146;17.098;2023-01-26T10:41:37;79.53;;;31.35;;
42196;SDS011;27866;48.146;17.098;2023-01-26T10:45:48;79.15;;;30.05;;
42196;SDS011;27866;48.146;17.098;2023-01-26T10:50:14;75.78;;;27.83;;
42196;SDS011;27866;48.146;17.098;2023-01-26T10:54:33;71.95;;;27.33;;
42196;SDS011;27866;48.146;17.098;2023-01-26T10:58:51;76.82;;;29.60;;
42196;SDS011;27866;48.146;17.098;2023-01-26T11:03:18;74.40;;;28.38;;
42196;SDS011;27866;48.146;17.098;2023-01-26T11:07:37;70.68;;;26.95;;
42196;SDS011;27866;48.146;17.098;2023-01-26T11:16:16;64.70;;;23.92;;
42196;SDS011;27866;48.146;17.098;2023-01-26T11:20:40;65.50;;;24.17;;
42196;SDS011;27866;48.146;17.098;2023-01-26T11:39:29;68.72;;;25.13;;
42196;SDS011;27866;48.146;17.098;2023-01-26T11:43:47;68.20;;;25.70;;
42196;SDS011;27866;48.146;17.098;2023-01-26T11:48:21;62.85;;;23.98;;
42196;SDS011;27866;48.146;17.098;2023-01-26T11:57:26;61.38;;;23.75;;
42196;SDS011;27866;48.146;17.098;2023-01-26T12:01:53;60.70;;;22.35;;
42196;SDS011;27866;48.146;17.098;2023-01-26T12:06:35;65.80;;;25.00;;
42196;SDS011;27866;48.146;17.098;2023-01-26T12:10:55;62.20;;;24.25;;
42196;SDS011;27866;48.146;17.098;2023-01-26T12:15:32;57.60;;;22.17;;
42196;SDS011;27866;48.146;17.098;2023-01-26T12:24:17;54.58;;;21.88;;
42196;SDS011;27866;48.146;17.098;2023-01-26T12:29:23;60.10;;;24.10;;
42196;SDS011;27866;48.146;17.098;2023-01-26T12:33:20;61.55;;;23.25;;
42196;SDS011;27866;48.146;17.098;2023-01-26T12:38:15;50.88;;;21.85;;
42196;SDS011;27866;48.146;17.098;2023-01-26T12:46:43;53.22;;;22.13;;
42196;SDS011;27866;48.146;17.098;2023-01-26T12:51:03;57.40;;;23.42;;
42196;SDS011;27866;48.146;17.098;2023-01-26T12:55:29;58.42;;;23.02;;
42196;SDS011;27866;48.146;17.098;2023-01-26T12:59:57;57.67;;;23.60;;
42196;SDS011;27866;48.146;17.098;2023-01-26T13:04:26;55.50;;;24.08;;
42196;SDS011;27866;48.146;17.098;2023-01-26T13:08:39;55.25;;;23.15;;
42196;SDS011;27866;48.146;17.098;2023-01-26T13:13:29;57.53;;;24.25;;
42196;SDS011;27866;48.146;17.098;2023-01-26T13:17:51;59.38;;;22.95;;
42196;SDS011;27866;48.146;17.098;2023-01-26T13:31:03;59.60;;;21.88;;
42196;SDS011;27866;48.146;17.098;2023-01-26T13:35:16;56.40;;;23.40;;
42196;SDS011;27866;48.146;17.098;2023-01-26T13:39:32;61.50;;;23.92;;
42196;SDS011;27866;48.146;17.098;2023-01-26T13:48:35;53.92;;;23.27;;
42196;SDS011;27866;48.146;17.098;2023-01-26T13:53:00;56.15;;;21.83;;
42196;SDS011;27866;48.146;17.098;2023-01-26T13:57:12;51.47;;;21.75;;
42196;SDS011;27866;48.146;17.098;2023-01-26T14:01:32;54.28;;;23.25;;
42196;SDS011;27866;48.146;17.098;2023-01-26T14:05:52;50.80;;;20.85;;
42196;SDS011;27866;48.146;17.098;2023-01-26T14:10:18;49.40;;;20.63;;
42196;SDS011;27866;48.146;17.098;2023-01-26T14:14:32;47.42;;;20.65;;
42196;SDS011;27866;48.146;17.098;2023-01-26T14:18:49;47.10;;;19.92;;
42196;SDS011;27866;48.146;17.098;2023-01-26T14:27:37;54.08;;;21.35;;
42196;SDS011;27866;48.146;17.098;2023-01-26T14:31:52;49.22;;;20.52;;
42196;SDS011;27866;48.146;17.098;2023-01-26T14:36:15;50.75;;;21.60;;
42196;SDS011;27866;48.146;17.098;2023-01-26T14:40:29;58.42;;;21.30;;
42196;SDS011;27866;48.146;17.098;2023-01-26T14:44:40;45.22;;;20.90;;
42196;SDS011;27866;48.146;17.098;2023-01-26T14:48:57;52.60;;;22.90;;
42196;SDS011;27866;48.146;17.098;2023-01-26T14:53:19;68.30;;;22.35;;
42196;SDS011;27866;48.146;17.098;2023-01-26T14:57:33;47.72;;;19.83;;
42196;SDS011;27866;48.146;17.098;2023-01-26T15:01:44;49.08;;;20.98;;
42196;SDS011;27866;48.146;17.098;2023-01-26T15:10:30;56.20;;;21.55;;
42196;SDS011;27866;48.146;17.098;2023-01-26T15:15:31;47.60;;;20.70;;
42196;SDS011;27866;48.146;17.098;2023-01-26T15:19:48;59.53;;;22.63;;
42196;SDS011;27866;48.146;17.098;2023-01-26T15:23:59;54.30;;;20.88;;
42196;SDS011;27866;48.146;17.098;2023-01-26T15:28:16;52.38;;;20.67;;
42196;SDS011;27866;48.146;17.098;2023-01-26T15:32:36;52.58;;;20.90;;
42196;SDS011;27866;48.146;17.098;2023-01-26T15:36:49;49.20;;;21.20;;
42196;SDS011;27866;48.146;17.098;2023-01-26T15:41:00;55.97;;;22.42;;
42196;SDS011;27866;48.146;17.098;2023-01-26T15:45:20;50.70;;;20.73;;
42196;SDS011;27866;48.146;17.098;2023-01-26T15:49:34;51.75;;;21.27;;
42196;SDS011;27866;48.146;17.098;2023-01-26T15:53:46;49.38;;;22.55;;
42196;SDS011;27866;48.146;17.098;2023-01-26T15:57:57;49.92;;;21.13;;
42196;SDS011;27866;48.146;17.098;2023-01-26T16:02:15;53.33;;;21.02;;
42196;SDS011;27866;48.146;17.098;2023-01-26T16:06:30;44.03;;;20.17;;
42196;SDS011;27866;48.146;17.098;2023-01-26T16:10:43;50.63;;;22.20;;
42196;SDS011;27866;48.146;17.098;2023-01-26T16:14:54;47.00;;;20.25;;
42196;SDS011;27866;48.146;17.098;2023-01-26T16:19:06;45.78;;;20.48;;
42196;SDS011;27866;48.146;17.098;2023-01-26T16:23:19;46.58;;;20.52;;
42196;SDS011;27866;48.146;17.098;2023-01-26T16:27:38;46.83;;;21.00;;
42196;SDS011;27866;48.146;17.098;2023-01-26T16:31:49;47.92;;;21.33;;
42196;SDS011;27866;48.146;17.098;2023-01-26T16:36:00;50.17;;;21.40;;
42196;SDS011;27866;48.146;17.098;2023-01-26T16:40:14;52.08;;;21.63;;
42196;SDS011;27866;48.146;17.098;2023-01-26T16:44:28;50.95;;;22.70;;
42196;SDS011;27866;48.146;17.098;2023-01-26T16:48:40;48.28;;;22.58;;
42196;SDS011;27866;48.146;17.098;2023-01-26T16:52:52;48.15;;;22.42;;
42196;SDS011;27866;48.146;17.098;2023-01-26T16:57:03;49.38;;;21.23;;
42196;SDS011;27866;48.146;17.098;2023-01-26T17:01:16;48.55;;;22.52;;
42196;SDS011;27866;48.146;17.098;2023-01-26T17:05:42;52.05;;;22.15;;
42196;SDS011;27866;48.146;17.098;2023-01-26T17:09:53;53.65;;;22.52;;
42196;SDS011;27866;48.146;17.098;2023-01-26T17:14:04;45.70;;;22.08;;
42196;SDS011;27866;48.146;17.098;2023-01-26T17:18:15;45.97;;;20.90;;
42196;SDS011;27866;48.146;17.098;2023-01-26T17:22:27;53.13;;;22.70;;
42196;SDS011;27866;48.146;17.098;2023-01-26T17:26:39;47.08;;;21.50;;
42196;SDS011;27866;48.146;17.098;2023-01-26T17:30:50;52.03;;;24.25;;
42196;SDS011;27866;48.146;17.098;2023-01-26T17:35:02;57.47;;;25.85;;
42196;SDS011;27866;48.146;17.098;2023-01-26T17:39:13;57.10;;;25.60;;
42196;SDS011;27866;48.146;17.098;2023-01-26T17:43:27;61.43;;;24.97;;
42196;SDS011;27866;48.146;17.098;2023-01-26T17:47:39;62.33;;;25.58;;
42196;SDS011;27866;48.146;17.098;2023-01-26T17:51:50;56.60;;;24.88;;
42196;SDS011;27866;48.146;17.098;2023-01-26T17:56:02;58.28;;;25.95;;
42196;SDS011;27866;48.146;17.098;2023-01-26T18:00:13;65.55;;;25.27;;
42196;SDS011;27866;48.146;17.098;2023-01-26T18:04:25;58.90;;;25.38;;
42196;SDS011;27866;48.146;17.098;2023-01-26T18:08:37;57.70;;;24.27;;
42196;SDS011;27866;48.146;17.098;2023-01-26T18:12:49;56.10;;;23.88;;
42196;SDS011;27866;48.146;17.098;2023-01-26T18:17:00;52.38;;;24.00;;
42196;SDS011;27866;48.146;17.098;2023-01-26T18:29:37;53.00;;;21.27;;
42196;SDS011;27866;48.146;17.098;2023-01-26T18:33:48;53.60;;;22.48;;
42196;SDS011;27866;48.146;17.098;2023-01-26T18:38:00;52.97;;;21.58;;
42196;SDS011;27866;48.146;17.098;2023-01-26T18:42:12;46.88;;;21.95;;
42196;SDS011;27866;48.146;17.098;2023-01-26T18:46:24;50.05;;;21.67;;
42196;SDS011;27866;48.146;17.098;2023-01-26T18:50:37;52.15;;;21.98;;
42196;SDS011;27866;48.146;17.098;2023-01-26T18:54:48;48.00;;;21.35;;
42196;SDS011;27866;48.146;17.098;2023-01-26T18:58:59;51.90;;;22.08;;
42196;SDS011;27866;48.146;17.098;2023-01-26T19:03:11;63.78;;;26.58;;
42196;SDS011;27866;48.146;17.098;2023-01-26T19:07:22;64.05;;;27.45;;
42196;SDS011;27866;48.146;17.098;2023-01-26T19:11:34;60.28;;;26.00;;
42196;SDS011;27866;48.146;17.098;2023-01-26T19:15:48;56.78;;;24.90;;
42196;SDS011;27866;48.146;17.098;2023-01-26T19:19:59;57.58;;;24.73;;
42196;SDS011;27866;48.146;17.098;2023-01-26T19:24:10;62.95;;;26.63;;
42196;SDS011;27866;48.146;17.098;2023-01-26T19:28:21;60.30;;;25.00;;
42196;SDS011;27866;48.146;17.098;2023-01-26T19:32:32;52.80;;;22.98;;
42196;SDS011;27866;48.146;17.098;2023-01-26T19:36:44;59.95;;;26.42;;
42196;SDS011;27866;48.146;17.098;2023-01-26T19:40:56;53.78;;;24.80;;
42196;SDS011;27866;48.146;17.098;2023-01-26T19:45:09;55.17;;;24.05;;
42196;SDS011;27866;48.146;17.098;2023-01-26T19:49:20;48.63;;;22.98;;
42196;SDS011;27866;48.146;17.098;2023-01-26T19:53:32;53.60;;;24.95;;
42196;SDS011;27866;48.146;17.098;2023-01-26T19:57:46;51.45;;;23.95;;
42196;SDS011;27866;48.146;17.098;2023-01-26T20:01:57;53.85;;;24.13;;
42196;SDS011;27866;48.146;17.098;2023-01-26T20:06:14;56.63;;;24.60;;
42196;SDS011;27866;48.146;17.098;2023-01-26T20:10:27;55.60;;;23.35;;
42196;SDS011;27866;48.146;17.098;2023-01-26T20:14:38;50.45;;;23.48;;
42196;SDS011;27866;48.146;17.098;2023-01-26T20:18:50;55.15;;;23.55;;
42196;SDS011;27866;48.146;17.098;2023-01-26T20:23:01;53.05;;;25.35;;
42196;SDS011;27866;48.146;17.098;2023-01-26T20:27:13;56.15;;;24.58;;
42196;SDS011;27866;48.146;17.098;2023-01-26T20:31:24;68.18;;;26.20;;
42196;SDS011;27866;48.146;17.098;2023-01-26T20:35:37;62.85;;;25.92;;
42196;SDS011;27866;48.146;17.098;2023-01-26T20:39:50;64.60;;;26.58;;
42196;SDS011;27866;48.146;17.098;2023-01-26T20:44:02;64.85;;;25.83;;
42196;SDS011;27866;48.146;17.098;2023-01-26T20:48:16;54.38;;;25.42;;
42196;SDS011;27866;48.146;17.098;2023-01-26T20:52:27;64.88;;;25.98;;
42196;SDS011;27866;48.146;17.098;2023-01-26T20:56:39;64.90;;;27.27;;
42196;SDS011;27866;48.146;17.098;2023-01-26T21:00:50;64.85;;;27.40;;
42196;SDS011;27866;48.146;17.098;2023-01-26T21:05:01;63.22;;;27.55;;
42196;SDS011;27866;48.146;17.098;2023-01-26T21:09:14;61.92;;;26.60;;
42196;SDS011;27866;48.146;17.098;2023-01-26T21:13:26;65.70;;;27.55;;
42196;SDS011;27866;48.146;17.098;2023-01-26T21:17:38;65.65;;;29.40;;
42196;SDS011;27866;48.146;17.098;2023-01-26T21:21:49;66.82;;;25.15;;
42196;SDS011;27866;48.146;17.098;2023-01-26T21:26:01;65.05;;;26.25;;
42196;SDS011;27866;48.146;17.098;2023-01-26T21:34:36;61.15;;;24.92;;
42196;SDS011;27866;48.146;17.098;2023-01-26T21:38:47;69.43;;;26.83;;
42196;SDS011;27866;48.146;17.098;2023-01-26T21:43:01;66.05;;;27.27;;
42196;SDS011;27866;48.146;17.098;2023-01-26T21:47:12;69.50;;;26.05;;
42196;SDS011;27866;48.146;17.098;2023-01-26T21:51:23;65.93;;;25.60;;
42196;SDS011;27866;48.146;17.098;2023-01-26T21:55:54;65.93;;;25.33;;
42196;SDS011;27866;48.146;17.098;2023-01-26T22:00:05;70.68;;;26.92;;
42196;SDS011;27866;48.146;17.098;2023-01-26T22:04:19;65.68;;;25.52;;
42196;SDS011;27866;48.146;17.098;2023-01-26T22:08:34;61.97;;;26.52;;
42196;SDS011;27866;48.146;17.098;2023-01-26T22:12:45;62.90;;;25.05;;
42196;SDS011;27866;48.146;17.098;2023-01-26T22:16:56;66.13;;;25.00;;
42196;SDS011;27866;48.146;17.098;2023-01-26T22:21:07;62.35;;;23.27;;
42196;SDS011;27866;48.146;17.098;2023-01-26T22:25:19;66.90;;;25.35;;
42196;SDS011;27866;48.146;17.098;2023-01-26T22:29:30;63.25;;;23.63;;
42196;SDS011;27866;48.146;17.098;2023-01-26T22:33:41;56.80;;;23.35;;
42196;SDS011;27866;48.146;17.098;2023-01-26T22:37:52;64.43;;;25.38;;
42196;SDS011;27866;48.146;17.098;2023-01-26T22:42:03;58.97;;;23.67;;
42196;SDS011;27866;48.146;17.098;2023-01-26T22:46:15;55.53;;;23.35;;
42196;SDS011;27866;48.146;17.098;2023-01-26T22:50:29;56.65;;;22.10;;
42196;SDS011;27866;48.146;17.098;2023-01-26T22:54:40;49.38;;;21.73;;
42196;SDS011;27866;48.146;17.098;2023-01-26T22:58:53;47.35;;;20.63;;
42196;SDS011;27866;48.146;17.098;2023-01-26T23:03:08;53.80;;;22.45;;
42196;SDS011;27866;48.146;17.098;2023-01-26T23:07:19;50.65;;;21.38;;
42196;SDS011;27866;48.146;17.098;2023-01-26T23:11:31;65.22;;;23.65;;
42196;SDS011;27866;48.146;17.098;2023-01-26T23:15:42;52.83;;;23.20;;
42196;SDS011;27866;48.146;17.098;2023-01-26T23:19:53;58.20;;;24.05;;
42196;SDS011;27866;48.146;17.098;2023-01-26T23:24:04;43.72;;;20.25;;
42196;SDS011;27866;48.146;17.098;2023-01-26T23:28:35;46.08;;;19.80;;
42196;SDS011;27866;48.146;17.098;2023-01-26T23:32:49;43.43;;;21.37;;
42196;SDS011;27866;48.146;17.098;2023-01-26T23:37:00;48.80;;;19.55;;
42196;SDS011;27866;48.146;17.098;2023-01-26T23:41:12;45.63;;;19.23;;
42196;SDS011;27866;48.146;17.098;2023-01-26T23:45:23;48.25;;;21.55;;
42196;SDS011;27866;48.146;17.098;2023-01-26T23:49:34;56.60;;;22.50;;
42196;SDS011;27866;48.146;17.098;2023-01-26T23:53:45;56.75;;;21.45;;
42196;SDS011;27866;48.146;17.098;2023-01-26T23:57:56;54.67;;;23.35;;
